createdAt,value
2023-02-11T00:01:21.749Z,25.50
2023-02-11T00:07:08.751Z,24.20
2023-02-11T00:10:02.902Z,30.10
2023-02-11T00:12:55.797Z,29.70
2023-02-11T00:15:48.882Z,26.30
2023-02-11T00:18:44.704Z,27.50
2023-02-11T00:21:37.552Z,26.60
2023-02-11T00:24:32.091Z,28.80
2023-02-11T00:27:24.802Z,29.10
2023-02-11T00:30:17.835Z,27.30
2023-02-11T00:33:10.633Z,27.90
2023-02-11T00:36:08.171Z,28.50
2023-02-11T00:39:04.447Z,30.00
2023-02-11T00:41:57.177Z,28.90
2023-02-11T00:44:50.423Z,27.70
2023-02-11T00:47:36.448Z,26.50
2023-02-11T00:50:29.702Z,25.80
2023-02-11T00:53:22.439Z,24.80
2023-02-11T00:56:15.253Z,26.90
2023-02-11T00:59:08.264Z,27.50
2023-02-11T01:02:01.566Z,29.20
2023-02-11T01:04:54.406Z,26.30
2023-02-11T01:07:48.382Z,26.40
2023-02-11T01:10:41.449Z,25.80
2023-02-11T01:13:37.324Z,26.80
2023-02-11T01:16:30.246Z,26.30
2023-02-11T01:19:23.015Z,25.10
2023-02-11T01:22:15.839Z,25.60
2023-02-11T01:25:09.451Z,25.70
2023-02-11T01:28:03.169Z,26.60
2023-02-11T01:30:48.857Z,24.50
2023-02-11T01:33:42.000Z,24.40
2023-02-11T01:36:34.840Z,21.90
2023-02-11T01:39:28.011Z,24.30
2023-02-11T01:42:23.585Z,24.60
2023-02-11T01:45:54.936Z,25.00
2023-02-11T01:48:53.341Z,24.40
2023-02-11T01:51:49.903Z,25.50
2023-02-11T01:55:05.157Z,23.90
2023-02-11T01:58:02.421Z,25.80
2023-02-11T02:00:57.718Z,24.70
2023-02-11T02:03:54.016Z,25.30
2023-02-11T02:06:51.143Z,24.50
2023-02-11T02:09:57.737Z,24.60
2023-02-11T02:12:50.878Z,24.30
2023-02-11T02:15:37.602Z,23.20
2023-02-11T02:18:45.296Z,23.60
2023-02-11T02:22:10.526Z,22.80
2023-02-11T02:25:21.017Z,23.80
2023-02-11T02:28:39.096Z,25.00
2023-02-11T02:31:53.703Z,23.80
2023-02-11T02:34:52.470Z,24.20
2023-02-11T02:37:53.917Z,24.50
2023-02-11T02:40:55.880Z,25.00
2023-02-11T02:43:51.850Z,25.70
2023-02-11T02:46:38.464Z,25.30
2023-02-11T02:49:33.125Z,24.70
2023-02-11T02:52:40.643Z,25.50
2023-02-11T02:55:54.199Z,26.70
2023-02-11T02:59:22.179Z,25.50
2023-02-11T03:02:23.182Z,26.60
2023-02-11T03:05:31.499Z,27.00
2023-02-11T03:08:31.285Z,27.30
2023-02-11T03:11:25.900Z,26.50
2023-02-11T03:14:20.675Z,28.10
2023-02-11T03:17:15.569Z,25.50
2023-02-11T03:20:12.497Z,25.30
2023-02-11T03:23:06.256Z,26.00
2023-02-11T03:26:11.885Z,26.10
2023-02-11T03:29:15.668Z,26.60
2023-02-11T03:32:09.480Z,26.50
2023-02-11T03:35:05.659Z,27.80
2023-02-11T03:38:02.034Z,26.80
2023-02-11T03:40:57.061Z,27.20
2023-02-11T03:43:55.849Z,27.30
2023-02-11T03:46:52.972Z,28.20
2023-02-11T03:49:37.493Z,27.90
2023-02-11T03:52:30.706Z,27.50
2023-02-11T03:55:20.218Z,27.60
2023-02-11T03:58:13.517Z,29.40
2023-02-11T04:01:09.920Z,28.80
2023-02-11T04:04:02.749Z,27.90
2023-02-11T04:06:48.406Z,25.50
2023-02-11T04:09:41.737Z,25.90
2023-02-11T04:12:34.838Z,27.70
2023-02-11T04:15:28.118Z,27.20
2023-02-11T04:18:20.928Z,27.50
2023-02-11T04:21:01.075Z,27.90
2023-02-11T04:23:53.852Z,26.00
2023-02-11T04:26:46.836Z,27.60
2023-02-11T04:29:40.241Z,28.00
2023-02-11T04:32:33.386Z,28.70
2023-02-11T04:35:26.145Z,28.90
2023-02-11T04:38:19.024Z,29.60
2023-02-11T04:41:11.885Z,28.40
2023-02-11T04:44:04.886Z,28.90
2023-02-11T04:46:57.677Z,27.50
2023-02-11T04:49:50.476Z,27.20
2023-02-11T04:52:43.366Z,27.40
2023-02-11T04:55:36.539Z,25.80
2023-02-11T04:58:29.430Z,26.70
2023-02-11T05:01:22.338Z,27.20
2023-02-11T05:04:15.672Z,27.40
2023-02-11T05:07:08.564Z,27.50
2023-02-11T05:10:01.559Z,29.40
2023-02-11T05:12:56.028Z,28.80
2023-02-11T05:15:50.148Z,28.40
2023-02-11T05:18:44.538Z,27.20
2023-02-11T05:21:37.741Z,27.00
2023-02-11T05:24:30.634Z,27.20
2023-02-11T05:27:24.441Z,28.80
2023-02-11T05:30:17.913Z,27.00
2023-02-11T05:33:10.750Z,27.40
2023-02-11T05:36:06.077Z,29.10
2023-02-11T05:38:58.930Z,28.00
2023-02-11T05:41:51.815Z,27.10
2023-02-11T05:44:45.255Z,27.10
2023-02-11T05:47:30.621Z,26.70
2023-02-11T05:50:16.042Z,27.50
2023-02-11T05:53:08.891Z,28.90
2023-02-11T05:56:01.960Z,28.50
2023-02-11T05:58:54.900Z,29.50
2023-02-11T06:01:47.669Z,28.70
2023-02-11T06:04:40.592Z,29.70
2023-02-11T06:07:33.528Z,30.00
2023-02-11T06:10:26.273Z,28.80
2023-02-11T06:13:19.850Z,27.80
2023-02-11T06:16:12.711Z,29.90
2023-02-11T06:19:05.815Z,28.40
2023-02-11T06:21:58.772Z,28.80
2023-02-11T06:25:01.382Z,28.00
2023-02-11T06:27:54.742Z,29.20
2023-02-11T06:30:41.391Z,28.50
2023-02-11T06:33:34.616Z,27.00
2023-02-11T06:36:27.825Z,28.80
2023-02-11T06:39:20.733Z,29.20
2023-02-11T06:42:08.023Z,29.20
2023-02-11T06:44:54.191Z,29.70
2023-02-11T06:47:46.975Z,29.90
2023-02-11T06:50:39.734Z,30.80
2023-02-11T06:53:32.794Z,30.30
2023-02-11T06:56:28.235Z,29.00
2023-02-11T06:59:14.283Z,29.00
2023-02-11T07:02:07.223Z,29.40
2023-02-11T07:04:56.754Z,31.00
2023-02-11T07:07:49.676Z,28.10
2023-02-11T07:10:42.885Z,28.30
2023-02-11T07:13:36.496Z,27.40
2023-02-11T07:16:21.055Z,28.10
2023-02-11T07:19:14.229Z,28.80
2023-02-11T07:21:49.986Z,31.40
2023-02-11T07:24:25.070Z,31.10
2023-02-11T07:27:18.186Z,29.00
2023-02-11T07:30:16.583Z,28.80
2023-02-11T07:33:09.695Z,30.00
2023-02-11T07:36:05.356Z,30.80
2023-02-11T07:38:58.539Z,31.80
2023-02-11T07:41:47.918Z,30.20
2023-02-11T07:44:40.850Z,31.20
2023-02-11T07:47:35.781Z,31.60
2023-02-11T07:50:19.750Z,30.70
2023-02-11T07:53:11.710Z,30.30
2023-02-11T07:56:06.090Z,29.20
2023-02-11T08:01:44.808Z,30.50
2023-02-11T08:04:38.289Z,30.50
2023-02-11T08:07:31.337Z,31.20
2023-02-11T08:10:27.359Z,30.60
2023-02-11T08:13:20.269Z,29.90
2023-02-11T08:16:21.641Z,29.80
2023-02-11T08:19:17.117Z,28.10
2023-02-11T08:22:10.061Z,29.30
2023-02-11T08:25:06.249Z,29.10
2023-02-11T08:27:57.886Z,29.40
2023-02-11T08:30:33.103Z,29.50
2023-02-11T08:33:16.057Z,30.00
2023-02-11T08:36:14.080Z,30.60
2023-02-11T08:42:09.250Z,27.60
2023-02-11T08:45:02.255Z,28.10
2023-02-11T08:47:48.077Z,28.70
2023-02-11T08:50:28.199Z,28.70
2023-02-11T08:53:21.121Z,31.00
2023-02-11T08:55:55.847Z,30.10
2023-02-11T08:58:49.032Z,29.40
2023-02-11T09:01:43.623Z,30.30
2023-02-11T09:04:36.675Z,29.10
2023-02-11T09:07:32.878Z,29.20
2023-02-11T09:10:25.929Z,27.20
2023-02-11T09:13:21.566Z,28.30
2023-02-11T09:16:06.994Z,28.90
2023-02-11T09:19:02.365Z,28.70
2023-02-11T09:21:54.046Z,28.60
2023-02-11T09:24:37.027Z,28.80
2023-02-11T09:27:31.367Z,29.90
2023-02-11T09:30:24.954Z,30.10
2023-02-11T09:33:17.913Z,29.70
2023-02-11T09:36:12.039Z,29.10
2023-02-11T09:39:06.606Z,28.90
2023-02-11T09:42:22.001Z,29.20
2023-02-11T09:45:20.412Z,29.60
2023-02-11T09:50:41.452Z,27.40
2023-02-11T09:53:29.929Z,29.20
2023-02-11T09:56:23.171Z,30.40
2023-02-11T09:59:17.755Z,29.20
2023-02-11T10:02:17.655Z,30.40
2023-02-11T10:05:35.194Z,29.60
2023-02-11T10:08:28.689Z,29.60
2023-02-11T10:11:32.088Z,30.70
2023-02-11T10:14:21.296Z,29.10
2023-02-11T10:17:22.735Z,27.80
2023-02-11T10:20:26.404Z,26.80
2023-02-11T10:23:22.508Z,27.50
2023-02-11T10:26:20.759Z,29.50
2023-02-11T10:29:00.901Z,29.10
2023-02-11T10:31:57.929Z,29.00
2023-02-11T10:34:52.091Z,28.60
2023-02-11T10:37:45.753Z,29.30
2023-02-11T10:40:39.361Z,29.20
2023-02-11T10:43:36.328Z,30.90
2023-02-11T10:46:33.578Z,31.20
2023-02-11T10:49:42.307Z,29.20
2023-02-11T10:52:35.146Z,30.30
2023-02-11T10:55:30.126Z,29.70
2023-02-11T10:58:33.295Z,27.90
2023-02-11T11:01:38.696Z,27.80
2023-02-11T11:04:45.116Z,27.30
2023-02-11T11:07:39.690Z,26.80
2023-02-11T11:10:44.618Z,27.60
2023-02-11T11:13:40.077Z,28.60
2023-02-11T11:16:28.349Z,28.30
2023-02-11T11:19:25.338Z,28.30
2023-02-11T11:22:24.898Z,27.90
2023-02-11T11:25:30.696Z,27.50
2023-02-11T11:28:26.544Z,26.80
2023-02-11T11:31:23.425Z,25.20
2023-02-11T11:34:31.036Z,26.30
2023-02-11T11:37:27.955Z,27.00
2023-02-11T11:40:29.143Z,27.10
2023-02-11T11:43:23.924Z,28.10
2023-02-11T11:46:07.801Z,26.80
2023-02-11T11:48:53.209Z,29.50
2023-02-11T11:51:43.552Z,33.10
2023-02-11T11:54:26.537Z,31.10
2023-02-11T11:57:24.380Z,30.10
2023-02-11T12:00:22.222Z,29.90
2023-02-11T12:03:29.293Z,37.30
2023-02-11T12:06:33.785Z,32.70
2023-02-11T12:09:34.013Z,29.70
2023-02-11T12:12:40.889Z,29.50
2023-02-11T12:15:36.480Z,28.60
2023-02-11T12:18:38.645Z,32.80
2023-02-11T12:21:55.484Z,38.10
2023-02-11T12:25:10.053Z,32.30
2023-02-11T12:28:09.061Z,37.50
2023-02-11T12:31:15.341Z,36.60
2023-02-11T12:34:27.263Z,34.50
2023-02-11T12:37:43.944Z,32.40
2023-02-11T12:40:26.647Z,33.30
2023-02-11T12:43:25.798Z,31.80
2023-02-11T12:46:43.523Z,30.80
2023-02-11T12:49:55.903Z,30.90
2023-02-11T12:53:19.210Z,30.90
2023-02-11T12:56:18.952Z,27.60
2023-02-11T12:59:18.755Z,28.00
2023-02-11T13:02:13.516Z,28.00
2023-02-11T13:05:19.995Z,29.10
2023-02-11T13:08:17.685Z,28.40
2023-02-11T13:11:15.165Z,30.50
2023-02-11T13:14:17.896Z,27.30
2023-02-11T13:17:21.293Z,31.00
2023-02-11T13:20:27.668Z,30.50
2023-02-11T13:23:24.582Z,30.70
2023-02-11T13:26:25.020Z,30.80
2023-02-11T13:29:33.346Z,31.00
2023-02-11T13:32:19.088Z,32.90
2023-02-11T13:35:06.082Z,39.30
2023-02-11T13:38:00.409Z,37.20
2023-02-11T13:41:04.482Z,37.00
2023-02-11T13:44:27.411Z,55.30
2023-02-11T13:47:43.122Z,32.40
2023-02-11T13:50:40.950Z,33.40
2023-02-11T13:53:45.739Z,33.70
2023-02-11T13:56:41.230Z,34.70
2023-02-11T13:59:51.500Z,33.30
2023-02-11T14:03:01.852Z,36.50
2023-02-11T14:06:30.774Z,34.90
2023-02-11T14:09:40.083Z,35.40
2023-02-11T14:12:36.224Z,35.60
2023-02-11T14:16:04.545Z,34.50
2023-02-11T14:19:04.567Z,35.60
2023-02-11T14:22:06.021Z,34.20
2023-02-11T14:25:02.193Z,35.20
2023-02-11T14:27:59.332Z,35.60
2023-02-11T14:31:05.179Z,38.30
2023-02-11T14:34:24.347Z,37.30
2023-02-11T14:37:33.097Z,34.20
2023-02-11T14:40:33.452Z,36.50
2023-02-11T14:43:30.704Z,34.70
2023-02-11T14:46:27.785Z,36.10
2023-02-11T14:49:29.782Z,35.90
2023-02-11T14:52:30.396Z,39.00
2023-02-11T14:55:34.650Z,39.40
2023-02-11T14:58:29.675Z,43.30
2023-02-11T15:01:35.429Z,44.60
2023-02-11T15:04:30.282Z,40.70
2023-02-11T15:07:23.652Z,38.70
2023-02-11T15:10:25.898Z,38.80
2023-02-11T15:13:27.303Z,40.70
2023-02-11T15:16:23.817Z,41.00
2023-02-11T15:19:25.736Z,38.80
2023-02-11T15:22:25.038Z,39.50
2023-02-11T15:25:20.040Z,44.70
2023-02-11T15:28:26.058Z,42.40
2023-02-11T15:31:21.166Z,40.40
2023-02-11T15:34:11.608Z,39.80
2023-02-11T15:36:54.731Z,38.50
2023-02-11T15:39:47.813Z,38.60
2023-02-11T15:42:52.595Z,39.20
2023-02-11T15:45:55.447Z,41.90
2023-02-11T15:48:44.127Z,40.70
2023-02-11T15:51:42.527Z,38.80
2023-02-11T15:54:34.674Z,39.80
2023-02-11T15:57:27.816Z,38.30
2023-02-11T16:00:23.500Z,41.80
2023-02-11T16:03:09.455Z,42.10
2023-02-11T16:06:24.145Z,43.50
2023-02-11T16:09:33.531Z,42.30
2023-02-11T16:12:29.353Z,43.70
2023-02-11T16:15:48.351Z,39.90
2023-02-11T16:18:52.033Z,38.90
2023-02-11T16:21:49.214Z,41.80
2023-02-11T16:24:42.920Z,39.70
2023-02-11T16:27:40.073Z,40.30
2023-02-11T16:30:38.454Z,39.70
2023-02-11T16:33:31.746Z,40.00
2023-02-11T16:36:18.616Z,43.10
2023-02-11T16:39:12.068Z,39.20
2023-02-11T16:42:07.438Z,40.30
2023-02-11T16:45:00.358Z,40.70
2023-02-11T16:47:44.480Z,45.00
2023-02-11T16:50:38.034Z,46.10
2023-02-11T16:53:26.616Z,50.40
2023-02-11T16:56:19.742Z,51.50
2023-02-11T16:59:13.186Z,48.40
2023-02-11T17:02:00.681Z,43.30
2023-02-11T17:04:48.204Z,42.20
2023-02-11T17:07:41.296Z,43.20
2023-02-11T17:10:37.892Z,42.20
2023-02-11T17:13:30.861Z,41.60
2023-02-11T17:16:27.782Z,40.80
2023-02-11T17:19:22.302Z,39.90
2023-02-11T17:22:15.361Z,40.50
2023-02-11T17:25:09.453Z,41.00
2023-02-11T17:28:02.437Z,43.70
2023-02-11T17:30:55.439Z,45.40
2023-02-11T17:33:48.792Z,46.60
2023-02-11T17:36:42.077Z,45.80
2023-02-11T17:39:35.110Z,43.60
2023-02-11T17:42:29.450Z,45.90
2023-02-11T17:45:22.622Z,41.40
2023-02-11T17:48:16.075Z,42.70
2023-02-11T17:51:00.552Z,44.10
2023-02-11T17:53:43.420Z,43.50
2023-02-11T17:56:26.391Z,41.80
2023-02-11T17:59:19.807Z,42.30
2023-02-11T18:02:14.405Z,41.60
2023-02-11T18:05:08.087Z,43.90
2023-02-11T18:08:01.384Z,45.60
2023-02-11T18:10:54.319Z,44.70
2023-02-11T18:13:54.832Z,45.90
2023-02-11T18:16:50.649Z,42.20
2023-02-11T18:19:43.643Z,46.00
2023-02-11T18:22:40.219Z,66.40
2023-02-11T18:25:33.504Z,42.10
2023-02-11T18:28:26.641Z,40.20
2023-02-11T18:31:22.031Z,43.20
2023-02-11T18:34:17.255Z,41.20
2023-02-11T18:37:10.413Z,39.90
2023-02-11T18:39:47.338Z,41.80
2023-02-11T18:42:40.372Z,47.00
2023-02-11T18:45:34.215Z,48.60
2023-02-11T18:48:09.822Z,47.80
2023-02-11T18:51:02.617Z,43.10
2023-02-11T18:53:55.908Z,49.80
2023-02-11T18:56:50.143Z,51.60
2023-02-11T18:59:28.041Z,54.50
2023-02-11T19:02:22.075Z,46.50
2023-02-11T19:05:15.791Z,41.10
2023-02-11T19:08:10.269Z,35.90
2023-02-11T19:11:06.842Z,28.60
2023-02-11T19:13:59.626Z,29.40
2023-02-11T19:16:57.458Z,27.20
2023-02-11T19:19:50.563Z,28.20
2023-02-11T19:22:44.958Z,26.70
2023-02-11T19:25:37.946Z,28.50
2023-02-11T19:28:33.202Z,24.60
2023-02-11T19:31:16.449Z,30.10
2023-02-11T19:34:09.453Z,32.10
2023-02-11T19:37:02.296Z,32.80
2023-02-11T19:39:55.379Z,29.70
2023-02-11T19:42:48.365Z,26.90
2023-02-11T19:45:41.561Z,29.40
2023-02-11T19:48:27.142Z,30.70
2023-02-11T19:51:20.729Z,26.30
2023-02-11T19:54:13.617Z,28.60
2023-02-11T19:57:06.833Z,25.70
2023-02-11T20:00:01.503Z,27.30
2023-02-11T20:02:54.444Z,25.90
2023-02-11T20:05:40.361Z,25.10
2023-02-11T20:08:33.548Z,27.60
2023-02-11T20:11:28.254Z,24.40
2023-02-11T20:14:12.921Z,28.70
2023-02-11T20:17:08.158Z,29.40
2023-02-11T20:20:01.360Z,30.90
2023-02-11T20:22:36.792Z,29.10
2023-02-11T20:25:17.850Z,30.40
2023-02-11T20:27:54.088Z,28.10
2023-02-11T20:30:34.741Z,24.10
2023-02-11T20:33:28.594Z,27.00
2023-02-11T20:36:16.697Z,27.20
2023-02-11T20:39:17.245Z,27.50
2023-02-11T20:42:14.431Z,27.30
2023-02-11T20:45:09.337Z,26.00
2023-02-11T20:48:02.211Z,24.10
2023-02-11T20:50:54.223Z,25.60
2023-02-11T20:53:50.034Z,26.70
2023-02-11T20:56:45.502Z,25.30
2023-02-11T20:59:40.006Z,23.70
2023-02-11T21:02:33.039Z,24.90
2023-02-11T21:05:25.863Z,24.10
2023-02-11T21:08:19.366Z,27.20
2023-02-11T21:11:12.547Z,28.10
2023-02-11T21:14:06.065Z,27.60
2023-02-11T21:16:59.345Z,27.40
2023-02-11T21:19:52.828Z,26.10
2023-02-11T21:22:38.436Z,25.40
2023-02-11T21:25:32.618Z,26.60
2023-02-11T21:28:27.382Z,22.90
2023-02-11T21:31:25.115Z,27.20
2023-02-11T21:34:17.991Z,24.90
2023-02-11T21:37:09.516Z,24.70
2023-02-11T21:40:02.427Z,25.90
2023-02-11T21:42:56.865Z,24.90
2023-02-11T21:45:51.712Z,24.60
2023-02-11T21:48:44.735Z,25.40
2023-02-11T21:51:38.085Z,24.60
2023-02-11T21:54:33.794Z,24.90
2023-02-11T21:57:26.559Z,24.10
2023-02-11T22:00:21.209Z,24.40
2023-02-11T22:03:15.029Z,24.10
2023-02-11T22:06:01.597Z,24.20
2023-02-11T22:08:55.105Z,23.70
2023-02-11T22:11:49.372Z,24.60
2023-02-11T22:14:42.203Z,22.50
2023-02-11T22:17:36.277Z,23.20
2023-02-11T22:20:29.312Z,24.50
2023-02-11T22:23:22.623Z,24.00
2023-02-11T22:26:17.651Z,24.70
2023-02-11T22:29:10.916Z,23.50
2023-02-11T22:32:03.833Z,23.40
2023-02-11T22:34:46.004Z,23.10
2023-02-11T22:37:38.808Z,21.30
2023-02-11T22:40:31.759Z,22.80
2023-02-11T22:43:24.755Z,23.80
2023-02-11T22:46:20.573Z,23.40
2023-02-11T22:49:15.707Z,24.80
2023-02-11T22:52:08.752Z,22.60
2023-02-11T22:55:01.656Z,21.90
2023-02-11T22:57:54.430Z,22.90
2023-02-11T23:00:47.275Z,21.20
2023-02-11T23:03:40.486Z,20.10
2023-02-11T23:06:34.396Z,20.70
2023-02-11T23:09:28.363Z,20.90
2023-02-11T23:12:21.426Z,19.80
2023-02-11T23:15:15.312Z,20.80
2023-02-11T23:18:08.696Z,21.10
2023-02-11T23:21:06.813Z,21.10
2023-02-11T23:26:51.456Z,21.60
2023-02-11T23:29:44.293Z,20.20
2023-02-11T23:32:41.019Z,19.70
2023-02-11T23:35:34.189Z,20.00
2023-02-11T23:38:28.815Z,18.60
2023-02-11T23:41:22.237Z,19.50
2023-02-11T23:44:17.806Z,18.70
2023-02-11T23:47:10.628Z,19.10
2023-02-11T23:50:05.184Z,19.90
2023-02-11T23:52:50.961Z,19.80
2023-02-11T23:55:45.806Z,21.30
2023-02-11T23:58:39.030Z,20.10
